createdAt,value
2019-03-16T00:00:33.680Z,1004.10
2019-03-16T00:01:33.654Z,1004.14
2019-03-16T00:02:33.588Z,1004.10
2019-03-16T00:03:33.554Z,1004.06
2019-03-16T00:04:33.511Z,1004.11
2019-03-16T00:05:33.466Z,1004.05
2019-03-16T00:06:33.447Z,1004.05
2019-03-16T00:07:33.481Z,1004.04
2019-03-16T00:08:33.331Z,1004.06
2019-03-16T00:09:33.299Z,1004.09
2019-03-16T00:10:33.257Z,1004.13
2019-03-16T00:11:33.212Z,1004.14
2019-03-16T00:12:33.190Z,1004.12
2019-03-16T00:13:33.115Z,1004.09
2019-03-16T00:14:33.079Z,1004.11
2019-03-16T00:15:33.040Z,1004.15
2019-03-16T00:16:32.985Z,1004.20
2019-03-16T00:17:32.978Z,1004.24
2019-03-16T00:18:32.910Z,1004.28
2019-03-16T00:19:32.859Z,1004.37
2019-03-16T00:20:32.818Z,1004.38
2019-03-16T00:21:32.782Z,1004.39
2019-03-16T00:22:32.744Z,1004.37
2019-03-16T00:23:32.722Z,1004.37
2019-03-16T00:24:32.655Z,1004.45
2019-03-16T00:25:32.606Z,1004.53
2019-03-16T00:26:32.562Z,1004.54
2019-03-16T00:27:32.522Z,1004.56
2019-03-16T00:28:32.502Z,1004.54
2019-03-16T00:29:32.441Z,1004.55
2019-03-16T00:30:32.398Z,1004.51
2019-03-16T00:31:32.353Z,1004.53
2019-03-16T00:32:32.311Z,1004.51
2019-03-16T00:33:32.286Z,1004.58
2019-03-16T00:34:32.217Z,1004.59
2019-03-16T00:35:32.248Z,1004.56
2019-03-16T00:36:32.139Z,1004.58
2019-03-16T00:37:32.092Z,1004.61
2019-03-16T00:38:32.076Z,1004.59
2019-03-16T00:39:32.006Z,1004.65
2019-03-16T00:40:31.961Z,1004.63
2019-03-16T00:41:31.927Z,1004.68
2019-03-16T00:42:31.892Z,1004.69
2019-03-16T00:43:31.842Z,1004.63
2019-03-16T00:44:31.821Z,1004.70
2019-03-16T00:45:31.751Z,1004.49
2019-03-16T00:46:31.710Z,1004.66
2019-03-16T00:47:31.663Z,1004.79
2019-03-16T00:48:31.622Z,1004.72
2019-03-16T00:49:31.608Z,1004.74
2019-03-16T00:50:31.541Z,1004.78
2019-03-16T00:51:31.491Z,1004.76
2019-03-16T00:52:31.452Z,1004.79
2019-03-16T00:53:31.419Z,1004.73
2019-03-16T00:54:31.395Z,1004.67
2019-03-16T00:55:31.343Z,1004.72
2019-03-16T00:56:31.286Z,1004.77
2019-03-16T00:57:31.231Z,1004.71
2019-03-16T00:58:31.189Z,1004.64
2019-03-16T00:59:31.172Z,1004.62
2019-03-16T01:00:31.103Z,1004.63
2019-03-16T01:01:31.090Z,1004.62
2019-03-16T01:02:32.820Z,1004.62
2019-03-16T01:03:30.986Z,1004.68
2019-03-16T01:04:30.944Z,1004.74
2019-03-16T01:05:30.911Z,1004.70
2019-03-16T01:06:30.848Z,1004.72
2019-03-16T01:07:30.839Z,1004.70
2019-03-16T01:08:30.769Z,1004.77
2019-03-16T01:09:30.719Z,1004.79
2019-03-16T01:10:30.673Z,1004.88
2019-03-16T01:11:30.645Z,1004.88
2019-03-16T01:12:30.590Z,1004.84
2019-03-16T01:13:30.573Z,1004.82
2019-03-16T01:14:30.507Z,1004.76
2019-03-16T01:15:30.493Z,1004.85
2019-03-16T01:16:30.426Z,1004.84
2019-03-16T01:17:30.371Z,1004.88
2019-03-16T01:18:30.330Z,1004.87
2019-03-16T01:19:30.313Z,1004.89
2019-03-16T01:20:30.246Z,1004.88
2019-03-16T01:21:30.210Z,1004.91
2019-03-16T01:22:30.167Z,1004.92
2019-03-16T01:23:30.116Z,1004.87
2019-03-16T01:24:30.098Z,1004.88
2019-03-16T01:25:30.035Z,1004.93
2019-03-16T01:26:29.990Z,1004.95
2019-03-16T01:27:29.946Z,1005.00
2019-03-16T01:28:29.905Z,1005.00
2019-03-16T01:29:29.882Z,1004.97
2019-03-16T01:30:29.817Z,1004.97
2019-03-16T01:31:29.769Z,1004.97
2019-03-16T01:32:40.046Z,1004.90
2019-03-16T01:33:29.690Z,1004.91
2019-03-16T01:34:29.669Z,1004.87
2019-03-16T01:35:29.604Z,1004.82
2019-03-16T01:36:29.594Z,1004.79
2019-03-16T01:37:29.512Z,1004.82
2019-03-16T01:38:29.469Z,1004.84
2019-03-16T01:39:29.433Z,1004.90
2019-03-16T01:40:29.414Z,1004.95
2019-03-16T01:41:29.369Z,1004.99
2019-03-16T01:42:29.298Z,1005.00
2019-03-16T01:43:29.253Z,1004.98
2019-03-16T01:44:29.210Z,1005.00
2019-03-16T01:45:29.176Z,1005.01
2019-03-16T01:46:29.130Z,1005.01
2019-03-16T01:47:29.107Z,1005.01
2019-03-16T01:48:29.036Z,1005.05
2019-03-16T01:49:29.002Z,1005.04
2019-03-16T01:50:28.958Z,1004.97
2019-03-16T01:51:28.912Z,1004.98
2019-03-16T01:52:28.894Z,1004.88
2019-03-16T01:53:28.821Z,1004.97
2019-03-16T01:54:28.777Z,1004.96
2019-03-16T01:55:28.741Z,1004.94
2019-03-16T01:56:28.701Z,1004.96
2019-03-16T01:57:28.684Z,1004.95
2019-03-16T01:58:28.607Z,1004.94
2019-03-16T01:59:28.559Z,1004.96
2019-03-16T02:00:28.525Z,1004.99
2019-03-16T02:01:28.496Z,1004.97
2019-03-16T02:02:28.443Z,1004.96
2019-03-16T02:03:28.420Z,1004.93
2019-03-16T02:04:28.354Z,1004.91
2019-03-16T02:05:28.300Z,1004.90
2019-03-16T02:06:28.261Z,1004.91
2019-03-16T02:07:28.242Z,1004.88
2019-03-16T02:08:28.175Z,1004.91
2019-03-16T02:09:28.153Z,1004.92
2019-03-16T02:10:28.090Z,1004.92
2019-03-16T02:11:28.058Z,1004.95
2019-03-16T02:12:28.001Z,1004.95
2019-03-16T02:13:27.964Z,1004.94
2019-03-16T02:14:27.941Z,1004.92
2019-03-16T02:15:27.874Z,1004.90
2019-03-16T02:16:27.843Z,1004.86
2019-03-16T02:17:27.784Z,1004.82
2019-03-16T02:18:27.739Z,1004.82
2019-03-16T02:19:27.719Z,1004.84
2019-03-16T02:20:27.654Z,1004.79
2019-03-16T02:21:27.705Z,1004.80
2019-03-16T02:22:27.588Z,1004.70
2019-03-16T02:23:27.539Z,1004.76
2019-03-16T02:24:27.518Z,1004.74
2019-03-16T02:25:27.437Z,1004.74
2019-03-16T02:26:27.482Z,1004.75
2019-03-16T02:27:27.361Z,1004.80
2019-03-16T02:28:27.314Z,1004.79
2019-03-16T02:29:27.271Z,1004.81
2019-03-16T02:30:27.247Z,1004.78
2019-03-16T02:31:27.179Z,1004.78
2019-03-16T02:32:27.138Z,1004.79
2019-03-16T02:33:27.098Z,1004.78
2019-03-16T02:34:27.074Z,1004.72
2019-03-16T02:35:27.011Z,1004.75
2019-03-16T02:36:26.972Z,1004.78
2019-03-16T02:37:26.922Z,1004.79
2019-03-16T02:38:26.884Z,1004.77
2019-03-16T02:39:26.853Z,1004.80
2019-03-16T02:40:26.812Z,1004.77
2019-03-16T02:41:26.777Z,1004.77
2019-03-16T02:42:26.711Z,1004.70
2019-03-16T02:43:26.661Z,1004.64
2019-03-16T02:44:26.614Z,1004.60
2019-03-16T02:45:26.581Z,1004.55
2019-03-16T02:46:26.561Z,1004.58
2019-03-16T02:47:26.494Z,1004.58
2019-03-16T02:48:26.449Z,1004.58
2019-03-16T02:49:26.399Z,1004.59
2019-03-16T02:50:26.360Z,1004.56
2019-03-16T02:51:26.340Z,1004.52
2019-03-16T02:52:26.268Z,1004.51
2019-03-16T02:53:26.233Z,1004.48
2019-03-16T02:54:26.190Z,1004.50
2019-03-16T02:55:26.145Z,1004.55
2019-03-16T02:56:26.099Z,1004.55
2019-03-16T02:57:26.077Z,1004.57
2019-03-16T02:58:26.010Z,1004.56
2019-03-16T02:59:25.974Z,1004.50
2019-03-16T03:00:25.929Z,1004.45
2019-03-16T03:01:25.875Z,1004.43
2019-03-16T03:02:25.869Z,1004.40
2019-03-16T03:03:29.732Z,1004.42
2019-03-16T03:04:25.747Z,1004.42
2019-03-16T03:05:25.712Z,1004.41
2019-03-16T03:06:25.669Z,1004.39
2019-03-16T03:07:25.622Z,1004.36
2019-03-16T03:08:25.616Z,1004.44
2019-03-16T03:09:25.532Z,1004.40
2019-03-16T03:10:25.487Z,1004.37
2019-03-16T03:11:25.442Z,1004.38
2019-03-16T03:12:25.399Z,1004.44
2019-03-16T03:13:25.365Z,1004.45
2019-03-16T03:14:25.352Z,1004.49
2019-03-16T03:15:25.292Z,1004.57
2019-03-16T03:16:25.227Z,1004.62
2019-03-16T03:17:25.192Z,1004.59
2019-03-16T03:18:25.149Z,1004.58
2019-03-16T03:19:25.116Z,1004.59
2019-03-16T03:20:25.112Z,1004.56
2019-03-16T03:21:25.017Z,1004.57
2019-03-16T03:22:24.970Z,1004.53
2019-03-16T03:23:24.924Z,1004.50
2019-03-16T03:24:24.881Z,1004.47
2019-03-16T03:25:24.845Z,1004.44
2019-03-16T03:26:24.830Z,1004.37
2019-03-16T03:27:24.768Z,1004.27
2019-03-16T03:28:24.733Z,1004.23
2019-03-16T03:29:24.669Z,1004.22
2019-03-16T03:30:24.646Z,1004.20
2019-03-16T03:31:24.614Z,1004.20
2019-03-16T03:32:24.546Z,1004.21
2019-03-16T03:33:24.517Z,1004.26
2019-03-16T03:34:24.448Z,1004.30
2019-03-16T03:35:29.065Z,1004.36
2019-03-16T03:36:24.392Z,1004.40
2019-03-16T03:37:24.328Z,1004.41
2019-03-16T03:38:24.279Z,1004.44
2019-03-16T03:39:24.240Z,1004.50
2019-03-16T03:40:24.205Z,1004.49
2019-03-16T03:41:24.148Z,1004.52
2019-03-16T03:42:24.135Z,1004.48
2019-03-16T03:43:24.059Z,1004.51
2019-03-16T03:44:24.038Z,1004.53
2019-03-16T03:45:23.989Z,1004.57
2019-03-16T03:46:23.940Z,1004.56
2019-03-16T03:47:23.884Z,1004.56
2019-03-16T03:48:23.887Z,1004.55
2019-03-16T03:49:23.842Z,1004.49
2019-03-16T03:50:23.768Z,1004.50
2019-03-16T03:51:23.725Z,1004.53
2019-03-16T03:52:23.681Z,1004.50
2019-03-16T03:53:23.627Z,1004.47
2019-03-16T03:54:23.617Z,1004.39
2019-03-16T03:55:23.546Z,1004.41
2019-03-16T03:56:23.527Z,1004.39
2019-03-16T03:57:23.462Z,1004.41
2019-03-16T03:58:23.414Z,1004.40
2019-03-16T03:59:23.386Z,1004.40
2019-03-16T04:00:23.351Z,1004.36
2019-03-16T04:01:23.287Z,1004.37
2019-03-16T04:02:23.239Z,1004.37
2019-03-16T04:03:23.200Z,1004.39
2019-03-16T04:04:23.162Z,1004.39
2019-03-16T04:05:23.131Z,1004.37
2019-03-16T04:06:23.062Z,1004.40
2019-03-16T04:07:23.021Z,1004.35
2019-03-16T04:08:23.014Z,1004.37
2019-03-16T04:09:22.940Z,1004.30
2019-03-16T04:10:22.904Z,1004.34
2019-03-16T04:11:22.853Z,1004.38
2019-03-16T04:12:22.819Z,1004.39
2019-03-16T04:13:22.758Z,1004.43
2019-03-16T04:14:22.746Z,1004.44
2019-03-16T04:15:22.694Z,1004.40
2019-03-16T04:16:22.632Z,1004.46
2019-03-16T04:17:22.594Z,1004.34
2019-03-16T04:18:22.551Z,1004.35
2019-03-16T04:19:22.528Z,1004.31
2019-03-16T04:20:22.461Z,1004.28
2019-03-16T04:21:22.451Z,1004.29
2019-03-16T04:22:22.377Z,1004.30
2019-03-16T04:23:22.344Z,1004.33
2019-03-16T04:24:22.297Z,1004.32
2019-03-16T04:25:22.239Z,1004.32
2019-03-16T04:26:22.227Z,1004.31
2019-03-16T04:27:22.161Z,1004.30
2019-03-16T04:28:22.115Z,1004.30
2019-03-16T04:29:22.079Z,1004.22
2019-03-16T04:30:22.031Z,1004.25
2019-03-16T04:31:22.018Z,1004.30
2019-03-16T04:32:21.966Z,1004.28
2019-03-16T04:33:21.892Z,1004.27
2019-03-16T04:34:29.203Z,1004.30
2019-03-16T04:35:21.812Z,1004.26
2019-03-16T04:36:21.774Z,1004.25
2019-03-16T04:37:21.748Z,1004.30
2019-03-16T04:38:21.674Z,1004.25
2019-03-16T04:39:21.634Z,1004.24
2019-03-16T04:40:21.592Z,1004.23
2019-03-16T04:41:21.555Z,1004.27
2019-03-16T04:42:21.546Z,1004.30
2019-03-16T04:43:21.470Z,1004.29
2019-03-16T04:44:21.429Z,1004.25
2019-03-16T04:45:21.384Z,1004.30
2019-03-16T04:46:21.333Z,1004.29
2019-03-16T04:47:21.292Z,1004.28
2019-03-16T04:48:21.268Z,1004.28
2019-03-16T04:49:21.212Z,1004.28
2019-03-16T04:50:21.168Z,1004.26
2019-03-16T04:51:21.117Z,1004.29
2019-03-16T04:52:21.072Z,1004.26
2019-03-16T04:53:21.059Z,1004.24
2019-03-16T04:54:20.995Z,1004.27
2019-03-16T04:55:20.956Z,1004.25
2019-03-16T04:56:20.909Z,1004.25
2019-03-16T04:57:20.860Z,1004.26
2019-03-16T04:58:20.839Z,1004.29
2019-03-16T04:59:20.772Z,1004.26
2019-03-16T05:00:20.727Z,1004.28
2019-03-16T05:01:20.691Z,1004.28
2019-03-16T05:02:20.650Z,1004.24
2019-03-16T05:03:20.604Z,1004.26
2019-03-16T05:04:20.584Z,1004.21
2019-03-16T05:05:20.521Z,1004.23
2019-03-16T05:06:20.468Z,1004.24
2019-03-16T05:07:29.452Z,1004.22
2019-03-16T05:08:20.378Z,1004.23
2019-03-16T05:09:20.365Z,1004.21
2019-03-16T05:10:20.294Z,1004.23
2019-03-16T05:11:20.263Z,1004.17
2019-03-16T05:12:20.218Z,1004.19
2019-03-16T05:13:29.480Z,1004.19
2019-03-16T05:14:29.036Z,1004.19
2019-03-16T05:15:29.552Z,1004.20
2019-03-16T05:16:20.035Z,1004.18
2019-03-16T05:17:19.993Z,1004.21
2019-03-16T05:18:29.109Z,1004.21
2019-03-16T05:19:29.122Z,1004.18
2019-03-16T05:20:28.699Z,1004.13
2019-03-16T05:21:19.842Z,1004.14
2019-03-16T05:22:19.783Z,1004.18
2019-03-16T05:23:29.209Z,1004.14
2019-03-16T05:24:19.694Z,1004.10
2019-03-16T05:25:19.667Z,1004.13
2019-03-16T05:26:19.600Z,1004.10
2019-03-16T05:27:19.555Z,1004.07
2019-03-16T05:28:19.512Z,1004.12
2019-03-16T05:29:19.476Z,1004.07
2019-03-16T05:30:19.467Z,1003.99
2019-03-16T05:31:19.391Z,1004.08
2019-03-16T05:32:19.347Z,1004.12
2019-03-16T05:33:19.299Z,1004.06
2019-03-16T05:34:19.251Z,1004.08
2019-03-16T05:35:19.228Z,1004.02
2019-03-16T05:36:19.167Z,1004.05
2019-03-16T05:37:19.131Z,1004.08
2019-03-16T05:38:19.089Z,1004.11
2019-03-16T05:39:19.036Z,1004.01
2019-03-16T05:40:18.994Z,1003.92
2019-03-16T05:41:18.990Z,1003.97
2019-03-16T05:42:18.909Z,1004.04
2019-03-16T05:43:28.225Z,1004.08
2019-03-16T05:44:18.823Z,1004.03
2019-03-16T05:45:18.779Z,1004.07
2019-03-16T05:46:18.734Z,1004.00
2019-03-16T05:47:18.716Z,1004.02
2019-03-16T05:48:18.651Z,1004.11
2019-03-16T05:49:18.605Z,1004.12
2019-03-16T05:50:18.564Z,1004.08
2019-03-16T05:51:18.536Z,1003.97
2019-03-16T05:52:18.497Z,1004.04
2019-03-16T05:53:18.434Z,1004.06
2019-03-16T05:54:18.393Z,1004.02
2019-03-16T05:55:18.343Z,1004.04
2019-03-16T05:56:18.294Z,1004.01
2019-03-16T05:57:18.287Z,1004.03
2019-03-16T05:58:18.218Z,1003.98
2019-03-16T05:59:18.175Z,1004.00
2019-03-16T06:00:18.142Z,1004.01
2019-03-16T06:01:18.084Z,1003.98
2019-03-16T06:02:18.089Z,1004.03
2019-03-16T06:03:17.991Z,1004.03
2019-03-16T06:04:17.945Z,1004.02
2019-03-16T06:05:17.933Z,1004.06
2019-03-16T06:06:17.878Z,1004.04
2019-03-16T06:07:17.869Z,1003.98
2019-03-16T06:08:17.786Z,1003.98
2019-03-16T06:09:17.731Z,1003.98
2019-03-16T06:10:17.705Z,1004.03
2019-03-16T06:11:17.667Z,1003.97
2019-03-16T06:12:17.614Z,1003.97
2019-03-16T06:13:17.594Z,1003.94
2019-03-16T06:14:17.524Z,1003.91
2019-03-16T06:15:17.500Z,1004.00
2019-03-16T06:16:17.434Z,1004.06
2019-03-16T06:17:17.390Z,1004.02
2019-03-16T06:18:17.340Z,1003.98
2019-03-16T06:19:17.317Z,1004.01
2019-03-16T06:20:17.298Z,1004.00
2019-03-16T06:21:17.241Z,1004.02
2019-03-16T06:22:17.197Z,1004.02
2019-03-16T06:23:17.138Z,1004.04
2019-03-16T06:24:17.084Z,1004.05
2019-03-16T06:25:17.072Z,1003.97
2019-03-16T06:26:17.004Z,1003.94
2019-03-16T06:27:16.957Z,1003.92
2019-03-16T06:28:16.924Z,1003.92
2019-03-16T06:29:16.910Z,1003.91
2019-03-16T06:30:16.825Z,1003.91
2019-03-16T06:31:16.790Z,1003.92
2019-03-16T06:32:16.745Z,1003.92
2019-03-16T06:33:16.701Z,1003.85
2019-03-16T06:34:16.705Z,1003.91
2019-03-16T06:35:24.551Z,1003.98
2019-03-16T06:36:16.571Z,1003.97
2019-03-16T06:37:16.536Z,1003.97
2019-03-16T06:38:16.500Z,1003.95
2019-03-16T06:39:16.484Z,1003.95
2019-03-16T06:40:16.405Z,1003.93
2019-03-16T06:41:16.380Z,1003.94
2019-03-16T06:42:16.327Z,1003.96
2019-03-16T06:43:16.294Z,1003.97
2019-03-16T06:44:16.239Z,1003.98
2019-03-16T06:45:16.207Z,1003.98
2019-03-16T06:46:16.143Z,1003.96
2019-03-16T06:47:16.097Z,1003.99
2019-03-16T06:48:16.075Z,1004.00
2019-03-16T06:49:16.029Z,1003.99
2019-03-16T06:50:16.061Z,1003.96
2019-03-16T06:51:15.937Z,1003.97
2019-03-16T06:52:15.901Z,1003.93
2019-03-16T06:53:15.854Z,1003.97
2019-03-16T06:54:15.812Z,1004.00
2019-03-16T06:55:15.770Z,1004.06
2019-03-16T06:56:15.710Z,1003.99
2019-03-16T06:57:15.679Z,1003.92
2019-03-16T06:58:15.629Z,1003.89
2019-03-16T06:59:15.576Z,1003.94
2019-03-16T07:00:15.561Z,1003.95
2019-03-16T07:01:15.532Z,1004.03
2019-03-16T07:02:15.454Z,1004.02
2019-03-16T07:03:15.429Z,1003.92
2019-03-16T07:04:15.381Z,1003.88
2019-03-16T07:05:15.326Z,1003.84
2019-03-16T07:06:15.296Z,1003.90
2019-03-16T07:07:15.236Z,1003.91
2019-03-16T07:08:15.186Z,1003.93
2019-03-16T07:09:15.130Z,1003.92
2019-03-16T07:10:15.096Z,1003.88
2019-03-16T07:11:15.082Z,1003.95
2019-03-16T07:12:15.018Z,1003.91
2019-03-16T07:13:14.966Z,1003.89
2019-03-16T07:14:14.933Z,1003.86
2019-03-16T07:15:14.922Z,1003.80
2019-03-16T07:16:14.845Z,1003.82
2019-03-16T07:17:14.830Z,1003.75
2019-03-16T07:18:14.782Z,1003.73
2019-03-16T07:19:14.719Z,1003.74
2019-03-16T07:20:14.695Z,1003.73
2019-03-16T07:21:14.627Z,1003.74
2019-03-16T07:22:14.594Z,1003.74
2019-03-16T07:23:14.604Z,1003.73
2019-03-16T07:24:14.515Z,1003.75
2019-03-16T07:25:14.458Z,1003.74
2019-03-16T07:26:15.380Z,1003.78
2019-03-16T07:27:25.692Z,1003.74
2019-03-16T07:28:14.356Z,1003.75
2019-03-16T07:29:14.287Z,1003.77
2019-03-16T07:30:14.241Z,1003.73
2019-03-16T07:31:14.191Z,1003.73
2019-03-16T07:32:14.148Z,1003.70
2019-03-16T07:33:14.126Z,1003.71
2019-03-16T07:34:14.059Z,1003.64
2019-03-16T07:35:14.026Z,1003.67
2019-03-16T07:36:13.983Z,1003.72
2019-03-16T07:37:13.942Z,1003.65
2019-03-16T07:38:13.922Z,1003.62
2019-03-16T07:39:13.844Z,1003.65
2019-03-16T07:40:13.817Z,1003.61
2019-03-16T07:41:13.797Z,1003.62
2019-03-16T07:42:13.721Z,1003.56
2019-03-16T07:43:13.753Z,1003.56
2019-03-16T07:44:13.637Z,1003.51
2019-03-16T07:45:13.606Z,1003.60
2019-03-16T07:46:13.569Z,1003.62
2019-03-16T07:47:13.510Z,1003.59
2019-03-16T07:48:13.463Z,1003.66
2019-03-16T07:49:13.452Z,1003.63
2019-03-16T07:50:13.378Z,1003.61
2019-03-16T07:51:13.347Z,1003.61
2019-03-16T07:52:13.301Z,1003.69
2019-03-16T07:53:13.282Z,1003.68
2019-03-16T07:54:13.241Z,1003.68
2019-03-16T07:55:13.182Z,1003.80
2019-03-16T07:56:13.140Z,1003.62
2019-03-16T07:57:13.103Z,1003.76
2019-03-16T07:58:13.083Z,1003.77
2019-03-16T07:59:13.124Z,1003.75
2019-03-16T08:00:12.972Z,1003.81
2019-03-16T08:01:12.953Z,1003.76
2019-03-16T08:02:12.893Z,1003.71
2019-03-16T08:03:12.827Z,1003.83
2019-03-16T08:04:12.810Z,1003.62
2019-03-16T08:05:18.494Z,1003.82
2019-03-16T08:06:12.701Z,1003.90
2019-03-16T08:07:12.678Z,1003.84
2019-03-16T08:08:12.627Z,1003.85
2019-03-16T08:09:12.705Z,1003.89
2019-03-16T08:10:12.559Z,1003.84
2019-03-16T08:11:12.506Z,1003.92
2019-03-16T08:12:12.461Z,1003.90
2019-03-16T08:13:12.475Z,1003.85
2019-03-16T08:14:12.431Z,1003.87
2019-03-16T08:15:12.331Z,1003.82
2019-03-16T08:16:12.312Z,1003.93
2019-03-16T08:17:12.248Z,1003.79
2019-03-16T08:18:12.254Z,1003.93
2019-03-16T08:19:12.166Z,1003.72
2019-03-16T08:20:12.145Z,1003.97
2019-03-16T08:21:12.115Z,1003.86
2019-03-16T08:22:12.047Z,1003.95
2019-03-16T08:23:12.041Z,1003.97
2019-03-16T08:24:11.950Z,1003.92
2019-03-16T08:25:11.920Z,1003.98
2019-03-16T08:26:11.907Z,1003.92
2019-03-16T08:27:11.836Z,1003.97
2019-03-16T08:28:11.834Z,1003.98
2019-03-16T08:29:11.793Z,1003.96
2019-03-16T08:30:11.776Z,1003.93
2019-03-16T08:31:11.662Z,1003.89
2019-03-16T08:32:11.628Z,1003.93
2019-03-16T08:33:11.621Z,1003.92
2019-03-16T08:34:11.546Z,1003.87
2019-03-16T08:35:11.492Z,1003.93
2019-03-16T08:36:11.478Z,1003.90
2019-03-16T08:37:11.406Z,1003.89
2019-03-16T08:38:11.375Z,1003.94
2019-03-16T08:39:11.341Z,1003.97
2019-03-16T08:40:11.284Z,1003.99
2019-03-16T08:41:11.291Z,1004.01
2019-03-16T08:42:12.365Z,1003.83
2019-03-16T08:43:11.148Z,1003.82
2019-03-16T08:44:11.146Z,1004.01
2019-03-16T08:45:11.082Z,1004.06
2019-03-16T08:46:11.038Z,1003.99
2019-03-16T08:47:11.020Z,1004.03
2019-03-16T08:48:22.305Z,1003.98
2019-03-16T08:49:10.915Z,1003.99
2019-03-16T08:50:10.867Z,1003.99
2019-03-16T08:51:10.819Z,1003.93
2019-03-16T08:52:10.808Z,1003.99
2019-03-16T08:53:10.773Z,1003.98
2019-03-16T08:54:10.728Z,1003.94
2019-03-16T08:55:10.663Z,1003.94
2019-03-16T08:56:10.598Z,1004.03
2019-03-16T08:57:10.596Z,1003.89
2019-03-16T08:58:10.517Z,1003.88
2019-03-16T08:59:10.485Z,1003.80
2019-03-16T09:00:10.455Z,1003.87
2019-03-16T09:01:10.404Z,1003.86
2019-03-16T09:02:10.403Z,1003.79
2019-03-16T09:03:10.324Z,1003.84
2019-03-16T09:04:10.270Z,1003.83
2019-03-16T09:05:10.271Z,1003.79
2019-03-16T09:06:10.194Z,1003.79
2019-03-16T09:07:10.176Z,1003.81
2019-03-16T09:08:10.122Z,1003.75
2019-03-16T09:09:10.082Z,1003.76
2019-03-16T09:10:10.075Z,1003.68
2019-03-16T09:11:09.986Z,1003.74
2019-03-16T09:12:09.951Z,1003.75
2019-03-16T09:13:09.953Z,1003.80
2019-03-16T09:14:09.872Z,1003.72
2019-03-16T09:15:09.820Z,1003.70
2019-03-16T09:16:09.797Z,1003.67
2019-03-16T09:17:09.741Z,1003.69
2019-03-16T09:18:09.687Z,1003.51
2019-03-16T09:19:09.678Z,1003.47
2019-03-16T09:20:09.599Z,1003.53
2019-03-16T09:21:09.597Z,1003.54
2019-03-16T09:22:09.598Z,1003.52
2019-03-16T09:23:09.491Z,1003.51
2019-03-16T09:24:09.465Z,1003.41
2019-03-16T09:25:09.430Z,1003.51
2019-03-16T09:26:09.381Z,1003.46
2019-03-16T09:27:09.496Z,1003.54
2019-03-16T09:28:18.239Z,1003.55
2019-03-16T09:29:15.044Z,1003.43
2019-03-16T09:30:09.187Z,1003.51
2019-03-16T09:31:09.182Z,1003.50
2019-03-16T09:32:09.115Z,1003.50
2019-03-16T09:33:09.093Z,1003.48
2019-03-16T09:34:09.031Z,1003.50
2019-03-16T09:35:09.012Z,1003.48
2019-03-16T09:36:08.974Z,1003.50
2019-03-16T09:37:08.898Z,1003.52
2019-03-16T09:38:08.864Z,1003.49
2019-03-16T09:39:08.808Z,1003.59
2019-03-16T09:40:08.760Z,1003.64
2019-03-16T09:41:08.749Z,1003.58
2019-03-16T09:42:08.699Z,1003.59
2019-03-16T09:43:08.652Z,1003.72
2019-03-16T09:44:08.605Z,1003.60
2019-03-16T09:45:08.600Z,1003.68
2019-03-16T09:46:08.541Z,1003.70
2019-03-16T09:47:08.506Z,1003.76
2019-03-16T09:48:08.453Z,1003.75
2019-03-16T09:49:08.404Z,1003.64
2019-03-16T09:50:08.356Z,1003.69
2019-03-16T09:51:08.352Z,1003.58
2019-03-16T09:52:08.267Z,1003.75
2019-03-16T09:53:08.234Z,1003.68
2019-03-16T09:54:08.196Z,1003.57
2019-03-16T09:55:08.154Z,1003.72
2019-03-16T09:56:08.156Z,1003.63
2019-03-16T09:57:08.064Z,1003.67
2019-03-16T09:58:08.028Z,1003.59
2019-03-16T09:59:07.979Z,1003.61
2019-03-16T10:00:07.937Z,1003.58
2019-03-16T10:01:07.926Z,1003.56
2019-03-16T10:02:07.857Z,1003.63
2019-03-16T10:03:07.842Z,1003.51
2019-03-16T10:04:08.155Z,1003.58
2019-03-16T10:05:15.529Z,1003.38
2019-03-16T10:06:07.682Z,1003.37
2019-03-16T10:07:07.684Z,1003.36
2019-03-16T10:08:07.626Z,1003.44
2019-03-16T10:09:07.576Z,1003.25
2019-03-16T10:10:07.566Z,1003.34
2019-03-16T10:11:07.491Z,1003.41
2019-03-16T10:12:07.451Z,1003.44
2019-03-16T10:13:07.496Z,1003.12
2019-03-16T10:14:08.214Z,1003.38
2019-03-16T10:15:08.266Z,1003.33
2019-03-16T10:16:07.683Z,1003.30
2019-03-16T10:17:07.294Z,1003.36
2019-03-16T10:18:07.309Z,1003.47
2019-03-16T10:19:07.159Z,1003.36
2019-03-16T10:20:07.162Z,1003.32
2019-03-16T10:21:07.296Z,1003.35
2019-03-16T10:22:07.145Z,1003.34
2019-03-16T10:23:06.988Z,1003.33
2019-03-16T10:24:06.957Z,1003.35
2019-03-16T10:25:06.954Z,1003.25
2019-03-16T10:26:06.878Z,1003.13
2019-03-16T10:27:06.863Z,1003.07
2019-03-16T10:28:06.801Z,1003.17
2019-03-16T10:29:06.755Z,1003.15
2019-03-16T10:30:06.717Z,1003.25
2019-03-16T10:31:06.676Z,1003.30
2019-03-16T10:32:06.671Z,1003.27
2019-03-16T10:33:06.607Z,1003.28
2019-03-16T10:34:06.563Z,1003.23
2019-03-16T10:35:06.509Z,1003.18
2019-03-16T10:36:06.468Z,1003.16
2019-03-16T10:37:06.438Z,1003.13
2019-03-16T10:38:06.440Z,1003.13
2019-03-16T10:39:06.355Z,1003.03
2019-03-16T10:40:06.321Z,1003.14
2019-03-16T10:41:06.283Z,1003.05
2019-03-16T10:42:06.275Z,1003.12
2019-03-16T10:43:06.219Z,1003.07
2019-03-16T10:44:06.151Z,1003.06
2019-03-16T10:45:06.126Z,1002.98
2019-03-16T10:46:08.318Z,1002.96
2019-03-16T10:47:06.021Z,1002.88
2019-03-16T10:48:06.020Z,1003.00
2019-03-16T10:49:05.974Z,1002.97
2019-03-16T10:50:05.907Z,1002.96
2019-03-16T10:51:05.894Z,1003.00
2019-03-16T10:52:05.850Z,1003.05
2019-03-16T10:53:05.868Z,1002.90
2019-03-16T10:54:05.818Z,1003.04
2019-03-16T10:55:05.705Z,1002.91
2019-03-16T10:56:05.683Z,1003.04
2019-03-16T10:57:05.660Z,1002.94
2019-03-16T10:58:05.580Z,1002.95
2019-03-16T10:59:05.578Z,1002.95
2019-03-16T11:00:05.506Z,1002.96
2019-03-16T11:01:05.449Z,1003.03
2019-03-16T11:02:05.419Z,1002.95
2019-03-16T11:03:05.398Z,1002.93
2019-03-16T11:04:05.337Z,1003.03
2019-03-16T11:05:05.346Z,1002.82
2019-03-16T11:06:05.273Z,1002.94
2019-03-16T11:07:05.218Z,1003.07
2019-03-16T11:08:05.190Z,1002.88
2019-03-16T11:09:27.936Z,1003.01
2019-03-16T11:10:05.107Z,1003.09
2019-03-16T11:11:05.069Z,1003.13
2019-03-16T11:12:05.022Z,1003.02
2019-03-16T11:13:05.072Z,1003.09
2019-03-16T11:14:04.940Z,1003.00
2019-03-16T11:15:04.937Z,1002.99
2019-03-16T11:16:04.857Z,1003.03
2019-03-16T11:17:04.833Z,1002.88
2019-03-16T11:18:10.060Z,1003.02
2019-03-16T11:19:11.232Z,1002.87
2019-03-16T11:20:04.715Z,1002.91
2019-03-16T11:21:10.731Z,1002.92
2019-03-16T11:22:06.472Z,1003.00
2019-03-16T11:23:05.577Z,1002.97
2019-03-16T11:24:06.375Z,1003.09
2019-03-16T11:25:04.763Z,1002.99
2019-03-16T11:26:05.768Z,1003.04
2019-03-16T11:27:04.407Z,1003.01
2019-03-16T11:28:04.478Z,1002.94
2019-03-16T11:29:09.313Z,1003.00
2019-03-16T11:30:05.503Z,1003.04
2019-03-16T11:31:04.266Z,1002.77
2019-03-16T11:32:04.340Z,1002.81
2019-03-16T11:33:04.289Z,1003.01
2019-03-16T11:34:04.185Z,1002.98
2019-03-16T11:35:04.254Z,1002.99
2019-03-16T11:36:04.671Z,1003.08
2019-03-16T11:37:03.993Z,1003.00
2019-03-16T11:38:04.864Z,1002.96
2019-03-16T11:39:04.002Z,1002.98
2019-03-16T11:40:03.962Z,1002.96
2019-03-16T11:41:03.855Z,1002.95
2019-03-16T11:42:05.360Z,1002.97
2019-03-16T11:43:04.262Z,1002.75
2019-03-16T11:44:03.888Z,1002.95
2019-03-16T11:45:04.209Z,1002.88
2019-03-16T11:46:03.676Z,1002.93
2019-03-16T11:47:03.682Z,1002.83
2019-03-16T11:48:03.995Z,1002.86
2019-03-16T11:49:04.025Z,1002.88
2019-03-16T11:50:03.784Z,1002.90
2019-03-16T11:51:03.490Z,1002.91
2019-03-16T11:52:03.412Z,1002.75
2019-03-16T11:53:03.368Z,1002.82
2019-03-16T11:54:03.304Z,1002.72
2019-03-16T11:55:03.390Z,1002.83
2019-03-16T11:56:03.228Z,1002.83
2019-03-16T11:57:03.188Z,1002.83
2019-03-16T11:58:03.171Z,1002.92
2019-03-16T11:59:03.092Z,1002.85
2019-03-16T12:00:03.054Z,1002.93
2019-03-16T12:01:03.037Z,1003.00
2019-03-16T12:02:05.506Z,1002.98
2019-03-16T12:03:02.931Z,1002.85
2019-03-16T12:04:02.906Z,1002.89
2019-03-16T12:05:02.858Z,1002.85